createdAt,value
2022-10-03T08:13:02.479Z,6.32
2022-10-03T08:16:16.363Z,10.82
2022-10-03T08:19:10.513Z,7.85
2022-10-03T08:22:17.320Z,6.78
2022-10-03T08:25:29.698Z,5.65
2022-10-03T08:28:51.823Z,11.00
2022-10-03T08:32:04.682Z,9.88
2022-10-03T08:35:08.317Z,5.30
2022-10-03T08:38:33.477Z,13.02
2022-10-03T08:41:37.566Z,10.77
2022-10-03T08:45:08.110Z,10.32
2022-10-03T08:47:53.271Z,12.05
2022-10-03T08:51:12.639Z,7.40
2022-10-03T08:54:13.811Z,10.02
2022-10-03T08:57:19.998Z,12.38
2022-10-03T09:00:05.167Z,8.93
2022-10-03T09:03:33.367Z,14.45
2022-10-03T09:06:29.214Z,7.90
2022-10-03T09:09:51.558Z,12.77
2022-10-03T09:13:14.344Z,9.35
2022-10-03T09:16:20.695Z,10.55
2022-10-03T09:19:45.022Z,12.10
2022-10-03T09:22:49.786Z,12.27
2022-10-03T09:25:50.349Z,13.65
2022-10-03T09:28:53.690Z,16.27
2022-10-03T09:32:18.942Z,11.20
2022-10-03T09:35:33.571Z,15.32
2022-10-03T09:39:05.821Z,13.45
2022-10-03T09:42:09.694Z,19.10
2022-10-03T09:45:16.338Z,20.33
2022-10-03T09:48:26.356Z,16.55
2022-10-03T09:51:25.336Z,15.82
2022-10-03T09:54:44.165Z,20.80
2022-10-03T09:57:51.889Z,15.55
2022-10-03T10:01:05.821Z,17.05
2022-10-03T10:04:12.369Z,15.27
2022-10-03T10:07:35.299Z,16.70
2022-10-03T10:10:46.944Z,16.40
2022-10-03T10:14:07.625Z,15.90
2022-10-03T10:17:26.629Z,13.65
2022-10-03T10:20:39.360Z,14.50
2022-10-03T10:23:30.163Z,16.08
2022-10-03T10:26:54.092Z,18.67
2022-10-03T10:29:50.960Z,5.18
2022-10-03T10:33:06.899Z,13.52
2022-10-03T10:36:27.915Z,15.02
2022-10-03T10:40:02.118Z,18.58
2022-10-03T10:43:10.799Z,16.50
2022-10-03T10:46:33.364Z,20.38
2022-10-03T10:49:27.798Z,17.60
2022-10-03T10:52:50.603Z,15.75
2022-10-03T10:56:00.473Z,18.17
2022-10-03T10:59:05.572Z,16.30
2022-10-03T11:02:23.137Z,13.65
2022-10-03T11:05:32.144Z,14.18
2022-10-03T11:08:59.840Z,13.18
2022-10-03T11:11:59.776Z,15.77
2022-10-03T11:15:03.493Z,11.68
2022-10-03T11:18:08.321Z,14.18
2022-10-03T11:21:08.393Z,12.82
2022-10-03T11:24:19.367Z,14.48
2022-10-03T11:27:32.385Z,11.07
2022-10-03T11:30:17.215Z,9.77
2022-10-03T11:33:05.325Z,9.15
2022-10-03T11:36:17.943Z,12.65
2022-10-03T11:39:42.110Z,19.63
2022-10-03T11:42:45.327Z,11.70
2022-10-03T11:45:42.864Z,12.52
2022-10-03T11:48:42.642Z,9.50
2022-10-03T11:54:34.183Z,12.98
2022-10-03T11:57:30.697Z,9.23
2022-10-03T12:00:20.561Z,16.23
2022-10-03T12:03:34.768Z,10.20
2022-10-03T12:06:59.749Z,10.43
2022-10-03T12:10:02.948Z,9.85
2022-10-03T12:12:55.246Z,11.77
2022-10-03T12:15:46.261Z,6.93
2022-10-03T12:18:55.078Z,13.15
2022-10-03T12:21:43.577Z,14.07
2022-10-03T12:24:34.139Z,10.23
2022-10-03T12:27:40.136Z,12.93
2022-10-03T12:30:31.441Z,11.65
2022-10-03T12:33:40.402Z,10.52
2022-10-03T12:36:49.264Z,10.52
2022-10-03T12:39:51.520Z,10.02
2022-10-03T12:42:46.958Z,13.63
2022-10-03T12:45:48.512Z,10.45
2022-10-03T12:48:59.032Z,12.23
2022-10-03T12:51:54.210Z,9.10
2022-10-03T12:54:49.873Z,14.68
2022-10-03T12:58:01.869Z,12.70
2022-10-03T13:01:25.035Z,13.70
2022-10-03T13:04:38.256Z,9.02
2022-10-03T13:07:28.436Z,8.23
2022-10-03T13:10:42.332Z,7.15
2022-10-03T13:13:49.762Z,9.95
2022-10-03T13:16:45.418Z,14.15
2022-10-03T13:20:10.181Z,9.13
2022-10-03T13:23:07.658Z,12.13
2022-10-03T13:26:08.862Z,9.07
2022-10-03T13:29:26.381Z,13.13
2022-10-03T13:32:26.561Z,9.02
2022-10-03T13:35:41.334Z,9.00
2022-10-03T13:38:46.826Z,9.13
2022-10-03T13:41:45.712Z,13.13
2022-10-03T13:44:50.195Z,12.70
2022-10-03T13:47:52.102Z,9.05
2022-10-03T13:51:02.416Z,9.32
2022-10-03T13:53:59.923Z,11.85
2022-10-03T13:57:08.075Z,13.48
2022-10-03T13:59:53.314Z,9.63
2022-10-03T14:02:44.512Z,9.65
2022-10-03T14:05:32.977Z,7.82
2022-10-03T14:08:39.538Z,12.35
2022-10-03T14:11:44.350Z,14.20
2022-10-03T14:14:54.057Z,9.65
2022-10-03T14:17:46.560Z,10.23
2022-10-03T14:20:37.561Z,10.02
2022-10-03T14:23:29.307Z,9.10
2022-10-03T14:26:29.430Z,8.45
2022-10-03T14:29:43.037Z,9.93
2022-10-03T14:32:59.766Z,13.65
2022-10-03T14:36:06.557Z,10.13
2022-10-03T14:39:09.814Z,9.75
2022-10-03T14:41:54.705Z,8.60
2022-10-03T14:44:46.139Z,9.30
2022-10-03T14:47:42.752Z,11.23
2022-10-03T14:50:31.326Z,8.23
2022-10-03T14:53:27.161Z,10.32
2022-10-03T14:56:14.286Z,6.75
2022-10-03T14:59:03.329Z,9.98
2022-10-03T15:01:52.640Z,7.28
2022-10-03T15:04:41.841Z,8.85
2022-10-03T15:07:39.947Z,8.25
2022-10-03T15:10:27.872Z,12.60
2022-10-03T15:13:19.084Z,7.85
2022-10-03T15:16:05.504Z,9.93
2022-10-03T15:18:58.409Z,9.70
2022-10-03T15:21:46.495Z,6.43
2022-10-03T15:24:35.253Z,7.80
2022-10-03T15:27:23.315Z,7.85
2022-10-03T15:30:20.569Z,7.38
2022-10-03T15:33:17.447Z,7.38
2022-10-03T15:36:22.725Z,7.32
2022-10-03T15:39:23.212Z,6.93
2022-10-03T15:42:08.264Z,9.55
2022-10-03T15:44:59.137Z,6.47
2022-10-03T15:47:46.542Z,8.23
2022-10-03T15:50:40.842Z,12.57
2022-10-03T15:53:36.538Z,8.75
2022-10-03T15:56:44.976Z,12.20
2022-10-03T15:59:43.520Z,11.07
2022-10-03T16:02:39.846Z,8.38
2022-10-03T16:05:27.390Z,8.80
2022-10-03T16:08:21.293Z,7.38
2022-10-03T16:11:17.387Z,12.65
2022-10-03T16:14:27.341Z,10.15
2022-10-03T16:17:28.874Z,7.05
2022-10-03T16:20:44.960Z,11.23
2022-10-03T16:23:38.293Z,9.25
2022-10-03T16:26:35.614Z,9.60
2022-10-03T16:29:34.952Z,8.02
2022-10-03T16:32:27.732Z,4.65
2022-10-03T16:35:27.961Z,7.22
2022-10-03T16:38:24.462Z,7.53
2022-10-03T16:41:24.510Z,9.15
2022-10-03T16:44:20.930Z,10.50
2022-10-03T16:47:07.978Z,8.13
2022-10-03T16:50:16.406Z,7.88
2022-10-03T16:53:07.759Z,8.68
2022-10-03T16:56:04.647Z,11.43
2022-10-03T16:58:55.837Z,9.10
2022-10-03T17:01:50.706Z,13.70
2022-10-03T17:04:43.485Z,10.90
2022-10-03T17:07:35.984Z,12.52
2022-10-03T17:10:32.474Z,10.73
2022-10-03T17:13:38.446Z,11.95
2022-10-03T17:16:29.504Z,15.13
2022-10-03T17:19:20.538Z,21.15
2022-10-03T17:22:10.612Z,13.95
2022-10-03T17:27:51.781Z,11.75
2022-10-03T17:30:47.182Z,8.85
2022-10-03T17:33:46.309Z,9.90
2022-10-03T17:37:03.206Z,10.90
2022-10-03T17:39:58.664Z,12.57
2022-10-03T17:42:52.489Z,13.93
2022-10-03T17:45:51.978Z,13.50
2022-10-03T17:48:41.257Z,10.07
2022-10-03T17:51:35.037Z,17.80
2022-10-03T17:54:33.644Z,12.80
2022-10-03T17:57:25.213Z,11.20
2022-10-03T18:00:27.535Z,9.35
2022-10-03T18:03:44.722Z,11.95
2022-10-03T18:06:29.798Z,9.75
2022-10-03T18:09:15.004Z,15.68
2022-10-03T18:12:12.066Z,14.30
2022-10-03T18:15:16.233Z,17.17
2022-10-03T18:18:26.270Z,17.42
2022-10-03T18:21:30.568Z,17.60
2022-10-03T18:24:43.299Z,17.17
2022-10-03T18:28:04.810Z,14.77
2022-10-03T18:30:57.178Z,16.00
2022-10-03T18:34:14.181Z,10.80
2022-10-03T18:37:04.119Z,8.25
2022-10-03T18:39:54.369Z,20.38
2022-10-03T18:42:40.633Z,14.50
2022-10-03T18:45:44.624Z,16.60
2022-10-03T18:48:35.219Z,15.05
2022-10-03T18:51:32.083Z,14.57
2022-10-03T18:54:35.237Z,11.02
2022-10-03T18:57:34.113Z,17.52
2022-10-03T19:00:25.234Z,17.60
2022-10-03T19:03:17.509Z,17.42
2022-10-03T19:06:33.355Z,10.48
2022-10-03T19:09:22.238Z,27.30
2022-10-03T19:12:24.094Z,42.55
2022-10-03T19:15:22.517Z,30.38
2022-10-03T19:18:27.835Z,22.90
2022-10-03T19:21:18.922Z,20.13
2022-10-03T19:24:17.566Z,16.30
2022-10-03T19:27:12.001Z,16.17
2022-10-03T19:29:59.007Z,15.25
2022-10-03T19:32:52.505Z,16.92
2022-10-03T19:35:45.190Z,19.05
2022-10-03T19:38:37.706Z,25.65
2022-10-03T19:41:36.758Z,17.33
2022-10-03T19:44:25.950Z,13.90
2022-10-03T19:47:19.139Z,14.30
2022-10-03T19:50:19.107Z,19.33
2022-10-03T19:53:18.479Z,18.02
2022-10-03T19:56:04.541Z,21.42
2022-10-03T19:59:04.236Z,15.52
2022-10-03T20:01:50.212Z,21.90
2022-10-03T20:04:37.125Z,24.77
2022-10-03T20:07:36.665Z,16.35
2022-10-03T20:10:43.754Z,18.60
2022-10-03T20:13:42.478Z,15.12
2022-10-03T20:16:33.193Z,18.70
2022-10-03T20:19:25.160Z,17.98
2022-10-03T20:22:13.494Z,22.52
2022-10-03T20:25:00.225Z,16.00
2022-10-03T20:27:51.859Z,20.98
2022-10-03T20:30:40.367Z,18.30
2022-10-03T20:33:31.611Z,16.02
2022-10-03T20:36:25.836Z,22.45
2022-10-03T20:39:17.729Z,17.70
2022-10-03T20:42:26.161Z,26.20
2022-10-03T20:45:29.363Z,21.17
2022-10-03T20:48:20.557Z,20.67
2022-10-03T20:51:05.570Z,23.08
2022-10-03T20:53:54.723Z,19.15
2022-10-03T20:56:51.525Z,16.95
2022-10-03T21:00:10.277Z,29.77
2022-10-03T21:03:04.059Z,20.65
2022-10-03T21:05:55.180Z,20.90
2022-10-03T21:08:41.665Z,23.83
2022-10-03T21:11:32.934Z,19.08
2022-10-03T21:14:25.546Z,20.63
2022-10-03T21:17:16.133Z,18.13
2022-10-03T21:20:07.635Z,17.52
2022-10-03T21:22:59.604Z,18.83
2022-10-03T21:25:45.413Z,18.70
2022-10-03T21:28:32.794Z,23.73
2022-10-03T21:31:35.225Z,22.58
2022-10-03T21:34:33.574Z,19.00
2022-10-03T21:37:31.066Z,23.33
2022-10-03T21:40:32.647Z,19.77
2022-10-03T21:43:39.849Z,17.45
2022-10-03T21:46:37.621Z,23.02
2022-10-03T21:49:32.119Z,17.73
2022-10-03T21:52:32.441Z,27.25
2022-10-03T21:55:51.818Z,15.95
2022-10-03T21:58:53.255Z,19.38
2022-10-03T22:01:52.948Z,21.77
2022-10-03T22:04:48.649Z,20.23
2022-10-03T22:07:42.270Z,23.70
2022-10-03T22:10:32.064Z,26.25
2022-10-03T22:16:14.544Z,17.58
2022-10-03T22:19:05.578Z,19.00
2022-10-03T22:22:06.027Z,22.05
2022-10-03T22:24:57.318Z,19.60
2022-10-03T22:27:54.541Z,24.45
2022-10-03T22:30:50.451Z,19.48
2022-10-03T22:33:54.135Z,23.95
2022-10-03T22:36:40.603Z,16.58
2022-10-03T22:39:26.625Z,23.15
2022-10-03T22:42:14.909Z,20.77
2022-10-03T22:45:02.990Z,19.02
2022-10-03T22:47:52.782Z,22.40
2022-10-03T22:53:31.935Z,20.38
2022-10-03T22:56:42.500Z,21.02
2022-10-03T22:59:31.404Z,21.20
2022-10-03T23:02:18.735Z,17.33
2022-10-03T23:05:09.654Z,20.27
2022-10-03T23:08:09.956Z,21.55
2022-10-03T23:11:08.608Z,17.55
2022-10-03T23:13:56.230Z,18.05
2022-10-03T23:16:56.162Z,20.35
2022-10-03T23:20:02.426Z,23.60
2022-10-03T23:22:54.229Z,23.05
2022-10-03T23:25:58.717Z,24.30
2022-10-03T23:29:14.848Z,20.85
2022-10-03T23:31:59.787Z,23.00
2022-10-03T23:34:46.351Z,22.15
2022-10-03T23:37:40.581Z,16.92
2022-10-03T23:40:39.897Z,17.80
2022-10-03T23:43:26.358Z,20.42
2022-10-03T23:46:15.245Z,15.23
2022-10-03T23:49:01.909Z,20.75
2022-10-03T23:51:48.246Z,24.23
2022-10-03T23:54:33.481Z,27.63
2022-10-03T23:57:20.198Z,22.08
